createdAt,value
2023-04-01T00:00:38.027Z,93760.13
2023-04-01T00:02:39.689Z,93758.31
2023-04-01T00:04:41.521Z,93763.13
2023-04-01T00:06:43.168Z,93760.44
2023-04-01T00:08:45.481Z,93757.69
2023-04-01T00:10:47.233Z,93760.50
2023-04-01T00:12:48.799Z,93765.31
2023-04-01T00:14:50.412Z,93772.50
2023-04-01T00:16:51.922Z,93770.91
2023-04-01T00:18:53.550Z,93769.66
2023-04-01T00:20:55.119Z,93773.75
2023-04-01T00:22:57.379Z,93773.97
2023-04-01T00:24:58.846Z,93783.91
2023-04-01T00:27:00.475Z,93771.81
2023-04-01T00:29:02.300Z,93769.84
2023-04-01T00:31:09.928Z,93776.03
2023-04-01T00:33:11.798Z,93769.03
2023-04-01T00:35:14.148Z,93765.94
2023-04-01T00:37:16.302Z,93765.47
2023-04-01T00:39:18.398Z,93767.25
2023-04-01T00:41:20.445Z,93764.88
2023-04-01T00:43:22.063Z,93758.28
2023-04-01T00:45:33.513Z,93746.06
2023-04-01T00:47:35.275Z,93738.63
2023-04-01T00:49:40.837Z,93747.94
2023-04-01T00:51:42.618Z,93741.09
2023-04-01T00:53:44.949Z,93733.22
2023-04-01T00:55:55.252Z,93739.03
2023-04-01T00:57:58.088Z,93744.06
2023-04-01T01:00:00.407Z,93725.34
2023-04-01T01:02:02.979Z,93715.50
2023-04-01T01:04:04.663Z,93714.94
2023-04-01T01:06:06.268Z,93710.25
2023-04-01T01:08:19.380Z,93703.38
2023-04-01T01:10:26.908Z,93709.69
2023-04-01T01:12:31.220Z,93698.56
2023-04-01T01:14:55.838Z,93709.13
2023-04-01T01:17:23.765Z,93697.38
2023-04-01T01:19:49.053Z,93695.00
2023-04-01T01:22:12.850Z,93698.00
2023-04-01T01:24:14.346Z,93687.69
2023-04-01T01:26:34.359Z,93692.13
2023-04-01T01:28:48.208Z,93682.47
2023-04-01T01:30:52.499Z,93681.03
2023-04-01T01:33:01.192Z,93672.19
2023-04-01T01:35:18.414Z,93668.38
2023-04-01T01:37:20.371Z,93679.28
2023-04-01T01:39:27.695Z,93668.41
2023-04-01T01:41:29.239Z,93666.56
2023-04-01T01:43:38.128Z,93671.97
2023-04-01T01:45:40.869Z,93669.16
2023-04-01T01:47:42.443Z,93667.19
2023-04-01T01:49:43.960Z,93679.66
2023-04-01T01:51:45.611Z,93669.78
2023-04-01T01:53:47.196Z,93660.06
2023-04-01T01:55:48.867Z,93663.94
2023-04-01T01:57:50.637Z,93660.75
2023-04-01T01:59:52.315Z,93660.69
2023-04-01T02:01:54.747Z,93656.25
2023-04-01T02:03:56.592Z,93663.47
2023-04-01T02:05:58.393Z,93655.44
2023-04-01T02:08:19.602Z,93644.59
2023-04-01T02:10:21.279Z,93646.19
2023-04-01T02:12:22.837Z,93635.53
2023-04-01T02:14:26.099Z,93639.63
2023-04-01T02:16:35.777Z,93629.81
2023-04-01T02:18:38.501Z,93638.69
2023-04-01T02:20:40.157Z,93633.63
2023-04-01T02:22:43.012Z,93637.25
2023-04-01T02:24:44.523Z,93633.81
2023-04-01T02:26:46.362Z,93638.06
2023-04-01T02:28:47.863Z,93647.50
2023-04-01T02:30:49.484Z,93654.97
2023-04-01T02:32:51.007Z,93648.16
2023-04-01T02:34:52.515Z,93640.63
2023-04-01T02:36:54.960Z,93644.69
2023-04-01T02:38:56.499Z,93645.97
2023-04-01T02:40:59.324Z,93638.56
2023-04-01T02:43:00.786Z,93637.69
2023-04-01T02:45:02.429Z,93655.28
2023-04-01T02:47:04.123Z,93644.03
2023-04-01T02:49:06.201Z,93650.69
2023-04-01T02:51:07.772Z,93653.50
2023-04-01T02:53:09.234Z,93654.19
2023-04-01T02:55:10.942Z,93660.94
2023-04-01T02:57:12.663Z,93657.63
2023-04-01T02:59:14.313Z,93677.50
2023-04-01T03:01:15.961Z,93672.38
2023-04-01T03:03:17.583Z,93670.66
2023-04-01T03:05:19.296Z,93676.47
2023-04-01T03:07:21.161Z,93687.97
2023-04-01T03:09:22.644Z,93681.97
2023-04-01T03:11:24.250Z,93675.56
2023-04-01T03:13:25.988Z,93682.22
2023-04-01T03:15:27.585Z,93691.78
2023-04-01T03:17:29.140Z,93685.09
2023-04-01T03:19:30.871Z,93670.72
2023-04-01T03:21:32.407Z,93685.34
2023-04-01T03:23:33.890Z,93688.50
2023-04-01T03:25:35.730Z,93691.19
2023-04-01T03:27:37.195Z,93696.63
2023-04-01T03:29:38.749Z,93699.94
2023-04-01T03:31:40.397Z,93692.53
2023-04-01T03:33:41.975Z,93689.31
2023-04-01T03:35:43.596Z,93684.78
2023-04-01T03:37:45.172Z,93679.53
2023-04-01T03:39:46.710Z,93675.09
2023-04-01T03:41:48.233Z,93662.06
2023-04-01T03:43:49.807Z,93647.03
2023-04-01T03:45:51.910Z,93638.34
2023-04-01T03:47:53.599Z,93627.88
2023-04-01T03:49:55.409Z,93618.25
2023-04-01T03:51:56.878Z,93612.03
2023-04-01T03:53:58.388Z,93604.50
2023-04-01T03:56:00.043Z,93591.81
2023-04-01T03:58:03.063Z,93588.78
2023-04-01T04:00:04.758Z,93579.56
2023-04-01T04:02:06.535Z,93571.91
2023-04-01T04:04:08.117Z,93582.78
2023-04-01T04:06:12.060Z,93582.47
2023-04-01T04:08:13.569Z,93572.16
2023-04-01T04:10:15.612Z,93566.13
2023-04-01T04:12:17.051Z,93561.91
2023-04-01T04:14:18.503Z,93554.66
2023-04-01T04:16:20.042Z,93550.72
2023-04-01T04:18:21.623Z,93543.50
2023-04-01T04:20:23.363Z,93545.41
2023-04-01T04:22:24.984Z,93548.78
2023-04-01T04:24:26.501Z,93535.69
2023-04-01T04:26:28.117Z,93551.72
2023-04-01T04:28:29.769Z,93544.31
2023-04-01T04:30:31.320Z,93544.53
2023-04-01T04:32:32.942Z,93543.97
2023-04-01T04:34:34.464Z,93549.50
2023-04-01T04:36:36.009Z,93546.25
2023-04-01T04:38:37.792Z,93554.22
2023-04-01T04:40:39.567Z,93546.00
2023-04-01T04:42:41.045Z,93518.25
2023-04-01T04:44:42.736Z,93504.84
2023-04-01T04:46:44.515Z,93507.13
2023-04-01T04:48:46.365Z,93517.59
2023-04-01T04:50:51.183Z,93522.06
2023-04-01T04:52:52.911Z,93510.72
2023-04-01T04:54:54.454Z,93516.78
2023-04-01T04:56:56.129Z,93508.50
2023-04-01T04:58:57.777Z,93512.38
2023-04-01T05:00:59.291Z,93506.56
2023-04-01T05:03:01.189Z,93508.47
2023-04-01T05:05:02.795Z,93495.44
2023-04-01T05:07:04.345Z,93499.72
2023-04-01T05:09:05.996Z,93494.34
2023-04-01T05:13:12.809Z,93498.25
2023-04-01T05:15:15.025Z,93494.94
2023-04-01T05:17:16.524Z,93470.31
2023-04-01T05:19:18.041Z,93472.31
2023-04-01T05:21:19.481Z,93478.44
2023-04-01T05:23:22.292Z,93452.47
2023-04-01T05:25:23.751Z,93461.47
2023-04-01T05:27:25.237Z,93471.97
2023-04-01T05:29:27.061Z,93473.31
2023-04-01T05:31:28.611Z,93459.47
2023-04-01T05:33:30.767Z,93449.72
2023-04-01T05:35:32.570Z,93480.44
2023-04-01T05:37:35.583Z,93470.66
2023-04-01T05:39:38.508Z,93449.88
2023-04-01T05:41:40.082Z,93452.75
2023-04-01T05:43:41.657Z,93460.72
2023-04-01T05:45:43.202Z,93462.03
2023-04-01T05:47:44.819Z,93471.59
2023-04-01T05:49:46.349Z,93462.38
2023-04-01T05:51:47.856Z,93458.56
2023-04-01T05:53:49.383Z,93454.56
2023-04-01T05:55:50.880Z,93449.56
2023-04-01T05:57:52.426Z,93441.66
2023-04-01T05:59:53.976Z,93439.22
2023-04-01T06:01:55.460Z,93451.16
2023-04-01T06:03:57.087Z,93433.00
2023-04-01T06:05:58.972Z,93447.09
2023-04-01T06:08:01.679Z,93444.91
2023-04-01T06:10:03.372Z,93454.03
2023-04-01T06:12:07.580Z,93443.09
2023-04-01T06:14:15.383Z,93438.69
2023-04-01T06:16:35.843Z,93441.31
2023-04-01T06:19:03.663Z,93436.84
2023-04-01T06:21:05.329Z,93439.06
2023-04-01T06:23:06.813Z,93445.34
2023-04-01T06:25:27.090Z,93445.72
2023-04-01T06:27:47.465Z,93457.44
2023-04-01T06:29:54.824Z,93443.31
2023-04-01T06:31:59.209Z,93432.00
2023-04-01T06:34:16.138Z,93421.28
2023-04-01T06:36:20.501Z,93431.38
2023-04-01T06:38:27.871Z,93433.59
2023-04-01T06:40:29.422Z,93418.81
2023-04-01T06:42:46.352Z,93399.06
2023-04-01T06:44:56.120Z,93394.00
2023-04-01T06:47:16.496Z,93402.91
2023-04-01T06:49:24.120Z,93417.44
2023-04-01T06:51:32.224Z,93397.66
2023-04-01T06:53:46.553Z,93389.16
2023-04-01T06:55:48.241Z,93394.63
2023-04-01T06:57:50.692Z,93390.75
2023-04-01T06:59:52.205Z,93390.34
2023-04-01T07:01:56.964Z,93393.00
2023-04-01T07:04:00.499Z,93392.38
2023-04-01T07:06:03.850Z,93389.53
2023-04-01T07:08:13.162Z,93409.97
2023-04-01T07:10:21.522Z,93401.28
2023-04-01T07:12:27.523Z,93399.28
2023-04-01T07:14:36.658Z,93394.81
2023-04-01T07:16:41.042Z,93378.63
2023-04-01T07:18:47.581Z,93370.78
2023-04-01T07:20:49.082Z,93393.81
2023-04-01T07:22:51.368Z,93395.81
2023-04-01T07:24:53.262Z,93402.09
2023-04-01T07:26:55.950Z,93410.97
2023-04-01T07:28:57.442Z,93418.00
2023-04-01T07:31:10.854Z,93378.00
2023-04-01T07:33:16.169Z,93397.25
2023-04-01T07:35:33.209Z,93423.09
2023-04-01T07:37:40.596Z,93390.75
2023-04-01T07:39:54.036Z,93408.72
2023-04-01T07:42:15.747Z,93416.19
2023-04-01T07:44:26.138Z,93403.84
2023-04-01T07:46:35.219Z,93388.31
2023-04-01T07:48:40.941Z,93399.25
2023-04-01T07:50:54.677Z,93398.00
2023-04-01T07:53:14.630Z,93379.34
2023-04-01T07:55:16.141Z,93387.84
2023-04-01T07:57:29.135Z,93388.22
2023-04-01T07:59:33.719Z,93389.63
2023-04-01T08:01:55.438Z,93375.69
2023-04-01T08:04:35.449Z,93378.28
2023-04-01T08:06:43.074Z,93397.06
2023-04-01T08:08:48.466Z,93378.19
2023-04-01T08:10:49.955Z,93368.72
2023-04-01T08:12:55.856Z,93365.44
2023-04-01T08:15:00.320Z,93353.34
2023-04-01T08:17:11.216Z,93357.94
2023-04-01T08:19:31.459Z,93356.25
2023-04-01T08:21:34.430Z,93338.41
2023-04-01T08:23:40.029Z,93331.22
2023-04-01T08:25:43.496Z,93345.38
2023-04-01T08:27:45.825Z,93330.81
2023-04-01T08:29:52.256Z,93341.28
2023-04-01T08:32:01.566Z,93334.81
2023-04-01T08:34:03.895Z,93315.25
2023-04-01T08:36:12.982Z,93306.69
2023-04-01T08:38:19.496Z,93299.97
2023-04-01T08:40:42.358Z,93293.44
2023-04-01T08:43:07.205Z,93283.34
2023-04-01T08:45:13.852Z,93266.13
2023-04-01T08:47:25.111Z,93267.53
2023-04-01T08:49:36.336Z,93278.06
2023-04-01T08:51:46.991Z,93269.31
2023-04-01T08:53:54.781Z,93267.03
2023-04-01T08:55:56.233Z,93277.50
2023-04-01T08:58:02.831Z,93266.78
2023-04-01T09:00:19.599Z,93275.69
2023-04-01T09:02:21.179Z,93271.38
2023-04-01T09:04:42.355Z,93278.06
2023-04-01T09:06:50.094Z,93276.09
2023-04-01T09:09:10.516Z,93268.69
2023-04-01T09:11:30.920Z,93266.94
2023-04-01T09:13:35.613Z,93262.56
2023-04-01T09:15:39.446Z,93260.03
2023-04-01T09:17:47.162Z,93255.13
2023-04-01T09:19:54.610Z,93262.06
2023-04-01T09:22:19.248Z,93258.63
2023-04-01T09:24:23.561Z,93257.34
2023-04-01T09:26:25.058Z,93246.13
2023-04-01T09:28:30.120Z,93242.78
2023-04-01T09:30:50.884Z,93238.16
2023-04-01T09:32:55.240Z,93224.75
2023-04-01T09:35:02.879Z,93235.31
2023-04-01T09:37:23.462Z,93228.06
2023-04-01T09:39:24.941Z,93226.66
2023-04-01T09:41:33.443Z,93213.50
2023-04-01T09:43:34.900Z,93213.97
2023-04-01T09:45:38.959Z,93198.06
2023-04-01T09:47:49.744Z,93194.81
2023-04-01T09:49:59.145Z,93195.16
2023-04-01T09:52:07.454Z,93181.75
2023-04-01T09:54:27.365Z,93188.47
2023-04-01T09:56:33.089Z,93186.84
2023-04-01T09:58:50.703Z,93176.63
2023-04-01T10:01:10.856Z,93166.97
2023-04-01T10:03:31.341Z,93163.97
2023-04-01T10:05:51.872Z,93169.09
2023-04-01T10:08:11.907Z,93157.84
2023-04-01T10:10:22.877Z,93164.00
2023-04-01T10:12:29.767Z,93156.84
2023-04-01T10:14:50.457Z,93172.72
2023-04-01T10:16:59.873Z,93153.06
2023-04-01T10:19:20.140Z,93157.78
2023-04-01T10:21:40.326Z,93140.31
2023-04-01T10:24:01.709Z,93146.53
2023-04-01T10:26:06.269Z,93141.06
2023-04-01T10:28:19.761Z,93144.50
2023-04-01T10:30:34.339Z,93137.63
2023-04-01T10:32:54.805Z,93143.41
2023-04-01T10:34:57.991Z,93139.00
2023-04-01T10:37:06.053Z,93144.78
2023-04-01T10:39:26.265Z,93124.09
2023-04-01T10:41:48.005Z,93124.38
2023-04-01T10:43:55.820Z,93118.09
2023-04-01T10:46:01.622Z,93118.34
2023-04-01T10:48:06.494Z,93122.97
2023-04-01T10:50:26.709Z,93127.09
2023-04-01T10:52:37.421Z,93114.66
2023-04-01T10:54:57.704Z,93118.78
2023-04-01T10:57:17.815Z,93114.50
2023-04-01T10:59:34.494Z,93104.72
2023-04-01T11:01:42.100Z,93106.56
2023-04-01T11:04:02.725Z,93088.63
2023-04-01T11:06:04.270Z,93090.16
2023-04-01T11:08:07.306Z,93104.41
2023-04-01T11:10:28.006Z,93106.53
2023-04-01T11:12:48.266Z,93085.97
2023-04-01T11:15:11.848Z,93079.13
2023-04-01T11:17:32.335Z,93106.13
2023-04-01T11:19:42.935Z,93095.22
2023-04-01T11:22:07.322Z,93104.28
2023-04-01T11:24:09.055Z,93122.19
2023-04-01T11:26:13.514Z,93129.66
2023-04-01T11:28:38.143Z,93147.22
2023-04-01T11:30:56.662Z,93141.28
2023-04-01T11:33:15.500Z,93184.13
2023-04-01T11:35:29.394Z,93186.34
2023-04-01T11:37:35.604Z,93182.78
2023-04-01T11:39:57.134Z,93220.25
2023-04-01T11:42:08.492Z,93238.06
2023-04-01T11:44:23.617Z,93266.66
2023-04-01T11:46:27.149Z,93307.78
2023-04-01T11:48:39.701Z,93335.47
2023-04-01T11:50:59.899Z,93376.41
2023-04-01T11:53:16.353Z,93365.31
2023-04-01T11:55:21.384Z,93371.97
2023-04-01T11:57:22.858Z,93362.53
2023-04-01T11:59:43.852Z,93385.44
2023-04-01T12:01:48.319Z,93378.59
2023-04-01T12:04:16.110Z,93378.81
2023-04-01T12:06:20.585Z,93367.53
2023-04-01T12:08:40.971Z,93350.31
2023-04-01T12:10:51.596Z,93352.81
2023-04-01T12:13:11.990Z,93351.16
2023-04-01T12:15:17.432Z,93341.06
2023-04-01T12:17:21.524Z,93344.88
2023-04-01T12:19:41.630Z,93345.66
2023-04-01T12:22:00.141Z,93344.53
2023-04-01T12:24:20.746Z,93333.81
2023-04-01T12:26:31.576Z,93339.13
2023-04-01T12:28:53.363Z,93359.03
2023-04-01T12:30:58.004Z,93354.66
2023-04-01T12:33:22.066Z,93354.38
2023-04-01T12:35:42.158Z,93362.91
2023-04-01T12:37:52.582Z,93363.09
2023-04-01T12:39:57.044Z,93364.94
2023-04-01T12:42:13.839Z,93357.22
2023-04-01T12:44:21.452Z,93358.03
2023-04-01T12:46:27.089Z,93337.78
2023-04-01T12:48:37.500Z,93342.44
2023-04-01T12:50:46.631Z,93346.84
2023-04-01T12:53:04.339Z,93347.47
2023-04-01T12:55:14.689Z,93344.22
2023-04-01T12:57:22.321Z,93332.09
2023-04-01T12:59:32.580Z,93324.00
2023-04-01T13:01:46.291Z,93321.31
2023-04-01T13:03:54.568Z,93321.50
2023-04-01T13:06:01.893Z,93319.13
2023-04-01T13:08:03.410Z,93322.31
2023-04-01T13:10:23.672Z,93294.38
2023-04-01T13:12:36.830Z,93262.81
2023-04-01T13:14:44.531Z,93253.88
2023-04-01T13:17:08.431Z,93247.69
2023-04-01T13:19:21.630Z,93252.13
2023-04-01T13:21:38.631Z,93264.59
2023-04-01T13:23:52.756Z,93265.19
2023-04-01T13:26:13.723Z,93264.31
2023-04-01T13:28:29.638Z,93271.81
2023-04-01T13:30:36.285Z,93259.75
2023-04-01T13:32:43.480Z,93254.78
2023-04-01T13:34:51.577Z,93244.25
2023-04-01T13:36:53.092Z,93238.00
2023-04-01T13:38:56.502Z,93235.91
2023-04-01T13:41:11.519Z,93222.53
2023-04-01T13:43:31.770Z,93221.47
2023-04-01T13:45:36.604Z,93217.19
2023-04-01T13:47:57.308Z,93209.13
2023-04-01T13:50:10.141Z,93205.44
2023-04-01T13:52:18.822Z,93197.59
2023-04-01T13:54:20.424Z,93199.59
2023-04-01T13:56:28.821Z,93185.34
2023-04-01T13:58:30.280Z,93195.28
2023-04-01T14:00:37.975Z,93201.03
2023-04-01T14:02:58.491Z,93195.00
2023-04-01T14:05:02.768Z,93180.69
2023-04-01T14:07:22.657Z,93179.22
2023-04-01T14:09:37.451Z,93178.19
2023-04-01T14:11:38.917Z,93174.44
2023-04-01T14:13:40.381Z,93177.53
2023-04-01T14:15:44.648Z,93162.59
2023-04-01T14:17:47.432Z,93169.16
2023-04-01T14:19:54.885Z,93168.56
2023-04-01T14:21:59.647Z,93151.22
2023-04-01T14:24:01.112Z,93150.31
2023-04-01T14:26:05.371Z,93146.53
2023-04-01T14:28:19.292Z,93133.44
2023-04-01T14:30:23.861Z,93143.09
2023-04-01T14:32:34.585Z,93132.41
2023-04-01T14:34:48.015Z,93123.78
2023-04-01T14:37:09.036Z,93121.03
2023-04-01T14:39:10.639Z,93133.28
2023-04-01T14:41:12.098Z,93130.50
2023-04-01T14:43:32.317Z,93127.69
2023-04-01T14:45:53.145Z,93127.53
2023-04-01T14:47:56.195Z,93130.94
2023-04-01T14:50:04.775Z,93125.84
2023-04-01T14:52:14.534Z,93137.31
2023-04-01T14:54:23.573Z,93146.47
2023-04-01T14:56:43.941Z,93130.75
2023-04-01T14:58:48.815Z,93140.84
2023-04-01T15:00:59.427Z,93124.59
2023-04-01T15:03:13.565Z,93136.94
2023-04-01T15:05:18.193Z,93150.03
2023-04-01T15:07:49.068Z,93148.03
2023-04-01T15:10:09.193Z,93143.50
2023-04-01T15:12:13.989Z,93159.09
2023-04-01T15:14:15.565Z,93159.47
2023-04-01T15:16:25.596Z,93155.28
2023-04-01T15:18:45.983Z,93172.09
2023-04-01T15:20:53.866Z,93165.91
2023-04-01T15:23:01.965Z,93158.00
2023-04-01T15:25:09.637Z,93176.63
2023-04-01T15:27:17.342Z,93178.34
2023-04-01T15:29:18.911Z,93176.41
2023-04-01T15:31:23.990Z,93169.84
2023-04-01T15:33:29.042Z,93179.59
2023-04-01T15:35:45.509Z,93171.97
2023-04-01T15:38:05.500Z,93170.72
2023-04-01T15:40:09.924Z,93171.72
2023-04-01T15:42:33.340Z,93171.94
2023-04-01T15:44:46.712Z,93192.16
2023-04-01T15:46:49.092Z,93312.47
2023-04-01T15:49:00.527Z,93368.06
2023-04-01T15:51:20.570Z,93411.59
2023-04-01T15:53:48.104Z,93413.59
2023-04-01T15:55:51.434Z,93430.44
2023-04-01T15:57:53.491Z,93498.41
2023-04-01T16:00:12.132Z,93437.56
2023-04-01T16:02:13.609Z,93449.25
2023-04-01T16:04:35.533Z,93438.16
2023-04-01T16:06:37.112Z,93458.97
2023-04-01T16:08:44.674Z,93452.72
2023-04-01T16:11:00.312Z,93463.06
2023-04-01T16:13:24.202Z,93450.16
2023-04-01T16:15:44.459Z,93456.84
2023-04-01T16:18:02.208Z,93471.81
2023-04-01T16:20:19.131Z,93460.97
2023-04-01T16:22:24.384Z,93474.16
2023-04-01T16:24:46.752Z,93468.25
2023-04-01T16:26:59.428Z,93474.31
2023-04-01T16:29:04.010Z,93473.84
2023-04-01T16:31:07.257Z,93473.31
2023-04-01T16:33:26.140Z,93481.94
2023-04-01T16:35:43.177Z,93488.25
2023-04-01T16:37:47.148Z,93494.16
2023-04-01T16:39:54.528Z,93504.69
2023-04-01T16:42:09.761Z,93503.81
2023-04-01T16:44:24.358Z,93499.69
2023-04-01T16:46:41.954Z,93513.22
2023-04-01T16:49:02.244Z,93501.03
2023-04-01T16:51:04.352Z,93505.59
2023-04-01T16:53:14.866Z,93505.19
2023-04-01T16:55:17.754Z,93509.41
2023-04-01T16:57:21.125Z,93511.06
2023-04-01T16:59:27.659Z,93517.66
2023-04-01T17:01:47.805Z,93508.25
2023-04-01T17:03:51.916Z,93515.66
2023-04-01T17:06:20.638Z,93522.06
2023-04-01T17:08:34.326Z,93524.94
2023-04-01T17:10:50.894Z,93536.41
2023-04-01T17:13:01.058Z,93543.25
2023-04-01T17:15:16.105Z,93536.84
2023-04-01T17:17:36.251Z,93553.00
2023-04-01T17:19:37.796Z,93561.94
2023-04-01T17:22:02.445Z,93551.09
2023-04-01T17:24:07.233Z,93543.88
2023-04-01T17:26:29.213Z,93566.25
2023-04-01T17:28:51.025Z,93543.00
2023-04-01T17:30:58.526Z,93553.53
2023-04-01T17:33:06.105Z,93552.00
2023-04-01T17:35:13.371Z,93551.78
2023-04-01T17:37:30.111Z,93540.84
2023-04-01T17:39:37.852Z,93551.81
2023-04-01T17:41:39.467Z,93533.97
2023-04-01T17:43:44.181Z,93562.63
2023-04-01T17:45:56.943Z,93551.72
2023-04-01T17:48:07.535Z,93548.19
2023-04-01T17:50:09.025Z,93555.22
2023-04-01T17:52:19.494Z,93546.28
2023-04-01T17:54:47.416Z,93550.53
2023-04-01T17:56:59.026Z,93555.16
2023-04-01T17:59:19.859Z,93567.50
2023-04-01T18:01:39.782Z,93573.56
2023-04-01T18:03:50.274Z,93572.31
2023-04-01T18:06:10.789Z,93584.22
2023-04-01T18:08:18.196Z,93587.78
2023-04-01T18:10:22.468Z,93599.50
2023-04-01T18:12:36.102Z,93598.75
2023-04-01T18:14:46.764Z,93612.56
2023-04-01T18:16:52.297Z,93610.38
2023-04-01T18:19:03.320Z,93616.63
2023-04-01T18:21:11.029Z,93611.97
2023-04-01T18:23:12.556Z,93623.59
2023-04-01T18:25:16.416Z,93629.41
2023-04-01T18:27:25.732Z,93628.56
2023-04-01T18:29:29.332Z,93642.69
2023-04-01T18:31:34.809Z,93638.16
2023-04-01T18:33:44.356Z,93632.00
2023-04-01T18:35:50.445Z,93618.25
2023-04-01T18:37:54.791Z,93615.78
2023-04-01T18:40:01.753Z,93607.75
2023-04-01T18:42:22.151Z,93617.88
2023-04-01T18:44:27.093Z,93612.78
2023-04-01T18:46:42.260Z,93618.13
2023-04-01T18:48:53.529Z,93610.75
2023-04-01T18:50:56.488Z,93619.28
2023-04-01T18:52:59.322Z,93609.03
2023-04-01T18:55:03.937Z,93612.75
2023-04-01T18:57:09.460Z,93624.81
2023-04-01T18:59:11.249Z,93613.09
2023-04-01T19:01:15.516Z,93623.09
2023-04-01T19:03:20.034Z,93620.28
2023-04-01T19:05:25.312Z,93631.03
2023-04-01T19:07:38.609Z,93632.94
2023-04-01T19:09:46.888Z,93635.84
2023-04-01T19:12:00.197Z,93646.88
2023-04-01T19:14:05.615Z,93646.88
2023-04-01T19:16:13.726Z,93655.38
2023-04-01T19:18:30.703Z,93661.13
2023-04-01T19:20:38.448Z,93671.53
2023-04-01T19:22:58.475Z,93661.25
2023-04-01T19:25:00.004Z,93682.09
2023-04-01T19:27:08.189Z,93673.06
2023-04-01T19:29:33.299Z,93690.56
2023-04-01T19:31:41.292Z,93678.13
2023-04-01T19:34:03.215Z,93681.56
2023-04-01T19:36:12.646Z,93681.22
2023-04-01T19:38:29.490Z,93694.63
2023-04-01T19:40:34.288Z,93694.97
2023-04-01T19:42:47.932Z,93694.97
2023-04-01T19:44:59.640Z,93688.13
2023-04-01T19:47:14.962Z,93708.91
2023-04-01T19:49:25.537Z,93699.25
2023-04-01T19:51:38.904Z,93698.44
2023-04-01T19:53:46.283Z,93694.72
2023-04-01T19:56:00.684Z,93704.69
2023-04-01T19:58:06.791Z,93707.84
2023-04-01T20:00:13.350Z,93700.97
2023-04-01T20:02:18.152Z,93705.41
2023-04-01T20:04:28.032Z,93697.88
2023-04-01T20:06:32.571Z,93690.47
2023-04-01T20:08:39.708Z,93684.44
2023-04-01T20:10:44.311Z,93689.47
2023-04-01T20:12:51.012Z,93671.19
2023-04-01T20:14:53.010Z,93678.00
2023-04-01T20:17:00.420Z,93685.97
2023-04-01T20:19:01.965Z,93684.84
2023-04-01T20:21:04.951Z,93674.41
2023-04-01T20:23:08.251Z,93679.47
2023-04-01T20:25:15.592Z,93698.09
2023-04-01T20:27:18.586Z,93689.97
2023-04-01T20:29:25.672Z,93699.25
2023-04-01T20:31:37.328Z,93694.59
2023-04-01T20:33:55.089Z,93700.16
2023-04-01T20:36:06.070Z,93695.78
2023-04-01T20:38:22.976Z,93694.59
2023-04-01T20:40:41.918Z,93703.31
2023-04-01T20:42:43.353Z,93699.50
2023-04-01T20:45:17.063Z,93700.47
2023-04-01T20:47:23.154Z,93704.66
2023-04-01T20:49:27.125Z,93713.19
2023-04-01T20:51:28.904Z,93701.81
2023-04-01T20:53:49.033Z,93707.28
2023-04-01T20:55:53.558Z,93706.94
2023-04-01T20:57:58.146Z,93706.56
2023-04-01T21:00:03.778Z,93711.47
2023-04-01T21:02:10.137Z,93706.06
2023-04-01T21:04:30.062Z,93721.28
2023-04-01T21:06:43.570Z,93707.53
2023-04-01T21:08:55.094Z,93717.38
2023-04-01T21:11:06.076Z,93713.78
2023-04-01T21:13:19.614Z,93722.72
2023-04-01T21:15:27.134Z,93715.53
2023-04-01T21:17:34.130Z,93720.75
2023-04-01T21:19:36.251Z,93732.28
2023-04-01T21:21:56.514Z,93730.50
2023-04-01T21:24:24.142Z,93730.63
2023-04-01T21:26:34.548Z,93727.47
2023-04-01T21:28:54.855Z,93716.31
2023-04-01T21:30:59.206Z,93724.63
2023-04-01T21:33:23.970Z,93727.25
2023-04-01T21:35:25.779Z,93724.91
2023-04-01T21:37:36.898Z,93721.59
2023-04-01T21:39:50.827Z,93727.31
2023-04-01T21:42:07.055Z,93726.56
2023-04-01T21:44:20.591Z,93725.13
2023-04-01T21:46:34.272Z,93717.81
2023-04-01T21:48:36.205Z,93721.09
2023-04-01T21:50:45.219Z,93733.19
2023-04-01T21:52:56.192Z,93723.00
2023-04-01T21:55:00.921Z,93722.94
2023-04-01T21:57:14.936Z,93711.41
2023-04-01T21:59:28.106Z,93719.78
2023-04-01T22:01:43.154Z,93730.94
2023-04-01T22:04:14.240Z,93723.31
2023-04-01T22:06:18.300Z,93724.91
2023-04-01T22:08:38.006Z,93724.00
2023-04-01T22:10:41.526Z,93724.81
2023-04-01T22:12:43.025Z,93715.78
2023-04-01T22:14:48.431Z,93724.34
2023-04-01T22:16:52.107Z,93730.84
2023-04-01T22:19:14.379Z,93712.59
2023-04-01T22:21:24.604Z,93713.53
2023-04-01T22:23:38.163Z,93705.16
2023-04-01T22:26:00.275Z,93706.88
2023-04-01T22:28:04.873Z,93699.31
2023-04-01T22:30:09.212Z,93707.50
2023-04-01T22:32:18.106Z,93702.38
2023-04-01T22:34:25.568Z,93710.28
2023-04-01T22:36:32.663Z,93716.50
2023-04-01T22:38:56.971Z,93721.91
2023-04-01T22:41:17.179Z,93725.81
2023-04-01T22:43:42.281Z,93718.25
2023-04-01T22:45:49.466Z,93729.34
2023-04-01T22:47:52.581Z,93733.28
2023-04-01T22:50:09.466Z,93722.72
2023-04-01T22:52:18.033Z,93722.66
2023-04-01T22:54:28.986Z,93738.50
2023-04-01T22:56:38.812Z,93738.78
2023-04-01T22:58:42.356Z,93748.72
2023-04-01T23:00:44.756Z,93753.72
2023-04-01T23:03:00.583Z,93744.38
2023-04-01T23:05:03.332Z,93753.19
2023-04-01T23:07:05.695Z,93748.44
2023-04-01T23:09:09.171Z,93741.72
2023-04-01T23:11:11.711Z,93743.63
2023-04-01T23:13:19.821Z,93738.50
2023-04-01T23:15:21.493Z,93761.28
2023-04-01T23:17:29.077Z,93755.53
2023-04-01T23:19:30.646Z,93749.03
2023-04-01T23:21:51.672Z,93744.75
2023-04-01T23:23:53.274Z,93750.19
2023-04-01T23:26:03.796Z,93750.41
2023-04-01T23:28:19.355Z,93744.91
2023-04-01T23:30:38.910Z,93753.28
2023-04-01T23:32:40.560Z,93756.97
2023-04-01T23:34:42.236Z,93757.63
2023-04-01T23:36:44.756Z,93753.63
2023-04-01T23:38:48.045Z,93762.25
2023-04-01T23:40:50.751Z,93751.81
2023-04-01T23:42:52.256Z,93774.88
2023-04-01T23:44:54.803Z,93755.31
2023-04-01T23:46:56.319Z,93762.44
2023-04-01T23:48:57.814Z,93741.78
2023-04-01T23:50:59.374Z,93743.50
2023-04-01T23:53:21.088Z,93747.47
2023-04-01T23:55:25.390Z,93748.97
2023-04-01T23:57:36.654Z,93761.56
2023-04-01T23:59:38.528Z,93749.66
